Decoded Metar for PAPB (POINT BARROW in AK, USA) (IATA:N/A) | Meteo·Mobile Aviation Weather
aviador You're here:

PAPB Decoded Metar

POINT BARROW in AK, USA
Report Time2019-08-24 13:53:00
UTC Time2019-08-24 14:09:01
Flight Rules mvfr MVFR
Wind320° at 11 kt
W.Decomp.*RWY 29: 10.4 kt HW 3.6 kt RCW
Visibility9999 m
Phenomena:N/A
Clouds:Broken 017 Hf
Broken 023 Hf
Overcast 029 Hf
Expected CloudBase > 800 ft AGL from Temp-Dew spread
Ceiling1,700 ft
Temp10°C (ISA -5)
Dew Point08°C (88% RH)
AAT5.6°C
QNH1014 hPa
Density Alt-344 ft
Elevation115 ft
Report Wrong Elevation
Raw Report
PAPB 241353Z AUTO 32011KT 10SM BKN017 BKN023 OVC029 10/08 A2993
RMK AO2 SLP122 T01000078 TSNO=

Extra information for PAPB:More info

Metar Taf Metar & Taf Last 4 Metars F.Rules Stats Wind Profile Meteogram Temp Stats Airport Information Weather charts Add Link Nearby VenuesMetar ALERT Operation Metar Decoded Social comments

AIRNAV info for PAPB